sensor_id;sensor_type;location;lat;lon;timestamp;P1;durP1;ratioP1;P2;durP2;ratioP2
60169;SDS011;46042;49.444;6.862;2023-02-10T00:01:19;18.33;;;9.83;;
60169;SDS011;46042;49.444;6.862;2023-02-10T00:03:46;19.53;;;10.07;;
60169;SDS011;46042;49.444;6.862;2023-02-10T00:06:13;16.47;;;8.90;;
60169;SDS011;46042;49.444;6.862;2023-02-10T00:08:42;15.27;;;8.00;;
60169;SDS011;46042;49.444;6.862;2023-02-10T00:11:12;18.77;;;9.20;;
60169;SDS011;46042;49.444;6.862;2023-02-10T00:13:38;23.17;;;10.17;;
60169;SDS011;46042;49.444;6.862;2023-02-10T00:16:07;21.00;;;9.47;;
60169;SDS011;46042;49.444;6.862;2023-02-10T00:18:37;14.63;;;8.37;;
60169;SDS011;46042;49.444;6.862;2023-02-10T00:21:08;14.20;;;8.77;;
60169;SDS011;46042;49.444;6.862;2023-02-10T00:23:36;20.83;;;8.90;;
60169;SDS011;46042;49.444;6.862;2023-02-10T00:26:03;24.57;;;9.43;;
60169;SDS011;46042;49.444;6.862;2023-02-10T00:28:32;23.83;;;10.07;;
60169;SDS011;46042;49.444;6.862;2023-02-10T00:31:04;17.73;;;9.03;;
60169;SDS011;46042;49.444;6.862;2023-02-10T00:33:32;13.67;;;7.87;;
60169;SDS011;46042;49.444;6.862;2023-02-10T00:35:59;15.83;;;9.07;;
60169;SDS011;46042;49.444;6.862;2023-02-10T00:38:32;15.00;;;7.43;;
60169;SDS011;46042;49.444;6.862;2023-02-10T00:41:05;14.20;;;7.93;;
60169;SDS011;46042;49.444;6.862;2023-02-10T00:43:33;18.40;;;9.80;;
60169;SDS011;46042;49.444;6.862;2023-02-10T00:46:01;18.80;;;9.97;;
60169;SDS011;46042;49.444;6.862;2023-02-10T00:48:27;16.67;;;8.73;;
60169;SDS011;46042;49.444;6.862;2023-02-10T00:50:54;20.33;;;8.37;;
60169;SDS011;46042;49.444;6.862;2023-02-10T00:53:20;23.63;;;9.90;;
60169;SDS011;46042;49.444;6.862;2023-02-10T00:55:47;19.30;;;9.47;;
60169;SDS011;46042;49.444;6.862;2023-02-10T00:58:14;17.90;;;8.87;;
60169;SDS011;46042;49.444;6.862;2023-02-10T01:00:41;30.07;;;10.33;;
60169;SDS011;46042;49.444;6.862;2023-02-10T01:03:07;14.60;;;7.37;;
60169;SDS011;46042;49.444;6.862;2023-02-10T01:05:34;13.57;;;8.67;;
60169;SDS011;46042;49.444;6.862;2023-02-10T01:08:00;17.57;;;8.73;;
60169;SDS011;46042;49.444;6.862;2023-02-10T01:10:27;15.93;;;7.87;;
60169;SDS011;46042;49.444;6.862;2023-02-10T01:12:54;22.07;;;10.20;;
60169;SDS011;46042;49.444;6.862;2023-02-10T01:15:20;14.17;;;7.57;;
60169;SDS011;46042;49.444;6.862;2023-02-10T01:17:47;20.77;;;8.37;;
60169;SDS011;46042;49.444;6.862;2023-02-10T01:20:14;16.23;;;8.20;;
60169;SDS011;46042;49.444;6.862;2023-02-10T01:22:40;17.43;;;9.27;;
60169;SDS011;46042;49.444;6.862;2023-02-10T01:25:07;18.13;;;8.07;;
60169;SDS011;46042;49.444;6.862;2023-02-10T01:27:34;15.33;;;8.27;;
60169;SDS011;46042;49.444;6.862;2023-02-10T01:30:01;14.03;;;8.17;;
60169;SDS011;46042;49.444;6.862;2023-02-10T01:32:28;15.50;;;8.37;;
60169;SDS011;46042;49.444;6.862;2023-02-10T01:34:54;19.70;;;9.33;;
60169;SDS011;46042;49.444;6.862;2023-02-10T01:37:21;20.23;;;9.50;;
60169;SDS011;46042;49.444;6.862;2023-02-10T01:39:48;19.40;;;8.23;;
60169;SDS011;46042;49.444;6.862;2023-02-10T01:42:15;12.20;;;8.27;;
60169;SDS011;46042;49.444;6.862;2023-02-10T01:47:09;12.30;;;6.43;;
60169;SDS011;46042;49.444;6.862;2023-02-10T01:49:39;14.90;;;8.20;;
60169;SDS011;46042;49.444;6.862;2023-02-10T01:52:12;13.27;;;7.83;;
60169;SDS011;46042;49.444;6.862;2023-02-10T01:54:51;15.03;;;7.67;;
60169;SDS011;46042;49.444;6.862;2023-02-10T01:57:24;15.52;;;7.47;;
60169;SDS011;46042;49.444;6.862;2023-02-10T01:59:51;18.87;;;9.07;;
60169;SDS011;46042;49.444;6.862;2023-02-10T02:02:18;13.33;;;6.07;;
60169;SDS011;46042;49.444;6.862;2023-02-10T02:04:47;18.17;;;9.23;;
60169;SDS011;46042;49.444;6.862;2023-02-10T02:07:17;16.23;;;8.10;;
60169;SDS011;46042;49.444;6.862;2023-02-10T02:09:46;23.27;;;8.50;;
60169;SDS011;46042;49.444;6.862;2023-02-10T02:12:19;17.83;;;8.67;;
60169;SDS011;46042;49.444;6.862;2023-02-10T02:14:56;14.20;;;7.67;;
60169;SDS011;46042;49.444;6.862;2023-02-10T02:17:30;12.33;;;6.67;;
60169;SDS011;46042;49.444;6.862;2023-02-10T02:20:12;11.37;;;7.10;;
60169;SDS011;46042;49.444;6.862;2023-02-10T02:32:05;13.60;;;8.17;;
60169;SDS011;46042;49.444;6.862;2023-02-10T02:34:42;16.37;;;8.57;;
60169;SDS011;46042;49.444;6.862;2023-02-10T02:37:33;16.10;;;8.27;;
60169;SDS011;46042;49.444;6.862;2023-02-10T02:40:07;11.67;;;7.20;;
60169;SDS011;46042;49.444;6.862;2023-02-10T02:42:35;15.83;;;8.47;;
60169;SDS011;46042;49.444;6.862;2023-02-10T03:01:40;12.33;;;7.43;;
60169;SDS011;46042;49.444;6.862;2023-02-10T03:04:12;14.53;;;7.57;;
60169;SDS011;46042;49.444;6.862;2023-02-10T03:06:41;17.07;;;7.17;;
60169;SDS011;46042;49.444;6.862;2023-02-10T03:09:08;13.93;;;8.57;;
60169;SDS011;46042;49.444;6.862;2023-02-10T03:11:35;17.30;;;9.27;;
60169;SDS011;46042;49.444;6.862;2023-02-10T03:14:01;20.33;;;8.93;;
60169;SDS011;46042;49.444;6.862;2023-02-10T03:16:28;15.80;;;7.80;;
60169;SDS011;46042;49.444;6.862;2023-02-10T03:18:55;21.83;;;9.10;;
60169;SDS011;46042;49.444;6.862;2023-02-10T03:21:21;20.63;;;8.47;;
60169;SDS011;46042;49.444;6.862;2023-02-10T03:23:48;15.33;;;8.03;;
60169;SDS011;46042;49.444;6.862;2023-02-10T03:26:14;13.87;;;7.60;;
60169;SDS011;46042;49.444;6.862;2023-02-10T03:28:41;10.77;;;6.27;;
60169;SDS011;46042;49.444;6.862;2023-02-10T03:31:08;12.40;;;7.90;;
60169;SDS011;46042;49.444;6.862;2023-02-10T03:33:35;17.83;;;6.83;;
60169;SDS011;46042;49.444;6.862;2023-02-10T03:36:02;9.90;;;6.47;;
60169;SDS011;46042;49.444;6.862;2023-02-10T03:38:29;15.10;;;7.33;;
60169;SDS011;46042;49.444;6.862;2023-02-10T03:40:55;15.97;;;8.37;;
60169;SDS011;46042;49.444;6.862;2023-02-10T03:43:22;13.83;;;7.37;;
60169;SDS011;46042;49.444;6.862;2023-02-10T03:45:49;14.27;;;7.13;;
60169;SDS011;46042;49.444;6.862;2023-02-10T03:48:16;15.13;;;8.17;;
60169;SDS011;46042;49.444;6.862;2023-02-10T03:50:43;18.50;;;9.10;;
60169;SDS011;46042;49.444;6.862;2023-02-10T03:53:10;13.67;;;7.17;;
60169;SDS011;46042;49.444;6.862;2023-02-10T03:55:37;12.07;;;7.23;;
60169;SDS011;46042;49.444;6.862;2023-02-10T03:58:04;11.53;;;6.77;;
60169;SDS011;46042;49.444;6.862;2023-02-10T04:00:30;15.40;;;6.57;;
60169;SDS011;46042;49.444;6.862;2023-02-10T04:02:58;11.27;;;6.17;;
60169;SDS011;46042;49.444;6.862;2023-02-10T04:05:25;15.63;;;8.83;;
60169;SDS011;46042;49.444;6.862;2023-02-10T04:07:51;16.47;;;8.23;;
60169;SDS011;46042;49.444;6.862;2023-02-10T04:10:18;15.37;;;7.90;;
60169;SDS011;46042;49.444;6.862;2023-02-10T04:12:47;17.40;;;7.83;;
60169;SDS011;46042;49.444;6.862;2023-02-10T04:15:14;16.47;;;9.00;;
60169;SDS011;46042;49.444;6.862;2023-02-10T04:17:41;15.77;;;8.40;;
60169;SDS011;46042;49.444;6.862;2023-02-10T04:20:07;16.03;;;8.23;;
60169;SDS011;46042;49.444;6.862;2023-02-10T04:22:34;17.17;;;8.87;;
60169;SDS011;46042;49.444;6.862;2023-02-10T04:25:01;12.03;;;7.63;;
60169;SDS011;46042;49.444;6.862;2023-02-10T04:27:27;15.30;;;6.97;;
60169;SDS011;46042;49.444;6.862;2023-02-10T04:29:54;19.20;;;8.60;;
60169;SDS011;46042;49.444;6.862;2023-02-10T04:32:21;17.07;;;7.57;;
60169;SDS011;46042;49.444;6.862;2023-02-10T04:34:48;12.70;;;7.47;;
60169;SDS011;46042;49.444;6.862;2023-02-10T04:37:14;13.67;;;7.97;;
60169;SDS011;46042;49.444;6.862;2023-02-10T04:39:41;14.60;;;7.47;;
60169;SDS011;46042;49.444;6.862;2023-02-10T04:42:08;20.17;;;9.03;;
60169;SDS011;46042;49.444;6.862;2023-02-10T04:44:35;15.23;;;7.87;;
60169;SDS011;46042;49.444;6.862;2023-02-10T04:47:02;15.67;;;8.83;;
60169;SDS011;46042;49.444;6.862;2023-02-10T04:49:28;15.53;;;7.83;;
60169;SDS011;46042;49.444;6.862;2023-02-10T04:51:55;14.83;;;8.47;;
60169;SDS011;46042;49.444;6.862;2023-02-10T04:54:22;17.30;;;7.77;;
60169;SDS011;46042;49.444;6.862;2023-02-10T04:56:48;17.50;;;8.07;;
60169;SDS011;46042;49.444;6.862;2023-02-10T04:59:15;15.63;;;7.43;;
60169;SDS011;46042;49.444;6.862;2023-02-10T05:01:42;14.33;;;7.20;;
60169;SDS011;46042;49.444;6.862;2023-02-10T05:04:08;15.77;;;7.93;;
60169;SDS011;46042;49.444;6.862;2023-02-10T05:06:35;16.67;;;9.03;;
60169;SDS011;46042;49.444;6.862;2023-02-10T05:09:02;20.27;;;8.53;;
60169;SDS011;46042;49.444;6.862;2023-02-10T05:11:28;11.77;;;6.57;;
60169;SDS011;46042;49.444;6.862;2023-02-10T05:13:55;12.50;;;8.27;;
60169;SDS011;46042;49.444;6.862;2023-02-10T05:16:22;23.00;;;8.13;;
60169;SDS011;46042;49.444;6.862;2023-02-10T05:18:48;17.03;;;7.77;;
60169;SDS011;46042;49.444;6.862;2023-02-10T05:21:15;12.63;;;8.37;;
60169;SDS011;46042;49.444;6.862;2023-02-10T05:23:42;14.27;;;8.40;;
60169;SDS011;46042;49.444;6.862;2023-02-10T05:26:08;16.57;;;8.17;;
60169;SDS011;46042;49.444;6.862;2023-02-10T05:28:35;28.57;;;10.03;;
60169;SDS011;46042;49.444;6.862;2023-02-10T05:31:02;16.77;;;9.03;;
60169;SDS011;46042;49.444;6.862;2023-02-10T05:33:31;11.57;;;8.23;;
60169;SDS011;46042;49.444;6.862;2023-02-10T05:35:57;21.17;;;8.53;;
60169;SDS011;46042;49.444;6.862;2023-02-10T05:38:24;16.40;;;8.83;;
60169;SDS011;46042;49.444;6.862;2023-02-10T05:40:52;14.13;;;8.10;;
60169;SDS011;46042;49.444;6.862;2023-02-10T05:43:19;14.03;;;7.87;;
60169;SDS011;46042;49.444;6.862;2023-02-10T05:45:46;15.90;;;7.30;;
60169;SDS011;46042;49.444;6.862;2023-02-10T05:48:14;14.67;;;7.80;;
60169;SDS011;46042;49.444;6.862;2023-02-10T05:50:41;17.03;;;8.17;;
60169;SDS011;46042;49.444;6.862;2023-02-10T05:53:07;13.27;;;7.47;;
60169;SDS011;46042;49.444;6.862;2023-02-10T05:55:35;16.43;;;7.17;;
60169;SDS011;46042;49.444;6.862;2023-02-10T05:58:02;11.10;;;8.07;;
60169;SDS011;46042;49.444;6.862;2023-02-10T06:00:30;12.90;;;8.53;;
60169;SDS011;46042;49.444;6.862;2023-02-10T06:02:57;14.37;;;8.80;;
60169;SDS011;46042;49.444;6.862;2023-02-10T06:05:23;11.47;;;7.10;;
60169;SDS011;46042;49.444;6.862;2023-02-10T06:07:50;20.23;;;8.70;;
60169;SDS011;46042;49.444;6.862;2023-02-10T06:10:17;21.17;;;10.70;;
60169;SDS011;46042;49.444;6.862;2023-02-10T06:12:44;25.20;;;10.87;;
60169;SDS011;46042;49.444;6.862;2023-02-10T06:15:10;20.63;;;9.97;;
60169;SDS011;46042;49.444;6.862;2023-02-10T06:17:37;17.73;;;8.67;;
60169;SDS011;46042;49.444;6.862;2023-02-10T06:20:04;18.13;;;8.87;;
60169;SDS011;46042;49.444;6.862;2023-02-10T06:22:31;20.53;;;9.00;;
60169;SDS011;46042;49.444;6.862;2023-02-10T06:24:58;21.03;;;9.37;;
60169;SDS011;46042;49.444;6.862;2023-02-10T06:27:24;24.03;;;10.57;;
60169;SDS011;46042;49.444;6.862;2023-02-10T06:29:51;18.27;;;10.13;;
60169;SDS011;46042;49.444;6.862;2023-02-10T06:32:17;20.00;;;9.00;;
60169;SDS011;46042;49.444;6.862;2023-02-10T06:34:44;15.17;;;8.33;;
60169;SDS011;46042;49.444;6.862;2023-02-10T06:37:11;19.60;;;10.33;;
60169;SDS011;46042;49.444;6.862;2023-02-10T06:39:38;18.83;;;9.23;;
60169;SDS011;46042;49.444;6.862;2023-02-10T06:42:04;18.93;;;9.33;;
60169;SDS011;46042;49.444;6.862;2023-02-10T06:44:31;33.97;;;12.20;;
60169;SDS011;46042;49.444;6.862;2023-02-10T06:46:58;19.77;;;10.43;;
60169;SDS011;46042;49.444;6.862;2023-02-10T06:49:24;23.23;;;11.47;;
60169;SDS011;46042;49.444;6.862;2023-02-10T06:51:51;23.10;;;8.97;;
60169;SDS011;46042;49.444;6.862;2023-02-10T06:54:17;18.00;;;9.20;;
60169;SDS011;46042;49.444;6.862;2023-02-10T06:56:44;19.27;;;10.57;;
60169;SDS011;46042;49.444;6.862;2023-02-10T06:59:12;17.03;;;9.33;;
60169;SDS011;46042;49.444;6.862;2023-02-10T07:01:39;14.90;;;9.40;;
60169;SDS011;46042;49.444;6.862;2023-02-10T07:04:06;14.63;;;9.07;;
60169;SDS011;46042;49.444;6.862;2023-02-10T07:06:32;16.23;;;9.23;;
60169;SDS011;46042;49.444;6.862;2023-02-10T07:08:59;14.73;;;9.10;;
60169;SDS011;46042;49.444;6.862;2023-02-10T07:11:27;27.20;;;12.60;;
60169;SDS011;46042;49.444;6.862;2023-02-10T07:13:53;23.00;;;11.77;;
60169;SDS011;46042;49.444;6.862;2023-02-10T07:16:20;24.83;;;11.40;;
60169;SDS011;46042;49.444;6.862;2023-02-10T07:18:47;24.17;;;10.40;;
60169;SDS011;46042;49.444;6.862;2023-02-10T07:21:13;18.40;;;10.07;;
60169;SDS011;46042;49.444;6.862;2023-02-10T07:23:40;24.57;;;10.73;;
60169;SDS011;46042;49.444;6.862;2023-02-10T07:26:08;18.87;;;10.13;;
60169;SDS011;46042;49.444;6.862;2023-02-10T07:28:36;19.50;;;10.40;;
60169;SDS011;46042;49.444;6.862;2023-02-10T07:31:03;26.20;;;11.90;;
60169;SDS011;46042;49.444;6.862;2023-02-10T07:33:30;17.60;;;9.83;;
60169;SDS011;46042;49.444;6.862;2023-02-10T07:36:00;17.63;;;9.60;;
60169;SDS011;46042;49.444;6.862;2023-02-10T07:38:28;19.40;;;10.67;;
60169;SDS011;46042;49.444;6.862;2023-02-10T07:40:55;22.90;;;11.50;;
60169;SDS011;46042;49.444;6.862;2023-02-10T07:43:22;19.30;;;9.83;;
60169;SDS011;46042;49.444;6.862;2023-02-10T07:45:49;23.63;;;11.50;;
60169;SDS011;46042;49.444;6.862;2023-02-10T07:48:17;18.80;;;11.00;;
60169;SDS011;46042;49.444;6.862;2023-02-10T07:50:45;17.77;;;10.60;;
60169;SDS011;46042;49.444;6.862;2023-02-10T07:53:13;22.73;;;10.47;;
60169;SDS011;46042;49.444;6.862;2023-02-10T07:55:39;17.30;;;9.87;;
60169;SDS011;46042;49.444;6.862;2023-02-10T07:58:06;27.77;;;10.13;;
60169;SDS011;46042;49.444;6.862;2023-02-10T08:00:33;18.23;;;10.57;;
60169;SDS011;46042;49.444;6.862;2023-02-10T08:03:00;23.63;;;10.83;;
60169;SDS011;46042;49.444;6.862;2023-02-10T08:05:27;18.37;;;10.40;;
60169;SDS011;46042;49.444;6.862;2023-02-10T08:07:55;15.63;;;9.37;;
60169;SDS011;46042;49.444;6.862;2023-02-10T08:10:21;21.00;;;12.10;;
60169;SDS011;46042;49.444;6.862;2023-02-10T08:12:48;18.50;;;11.00;;
60169;SDS011;46042;49.444;6.862;2023-02-10T08:15:15;22.10;;;10.63;;
60169;SDS011;46042;49.444;6.862;2023-02-10T08:17:44;17.57;;;10.30;;
60169;SDS011;46042;49.444;6.862;2023-02-10T08:20:10;17.73;;;11.10;;
60169;SDS011;46042;49.444;6.862;2023-02-10T08:22:37;20.90;;;10.73;;
60169;SDS011;46042;49.444;6.862;2023-02-10T08:25:04;21.53;;;11.63;;
60169;SDS011;46042;49.444;6.862;2023-02-10T08:27:31;23.40;;;10.67;;
60169;SDS011;46042;49.444;6.862;2023-02-10T08:29:58;26.57;;;12.47;;
60169;SDS011;46042;49.444;6.862;2023-02-10T08:32:25;20.87;;;11.17;;
60169;SDS011;46042;49.444;6.862;2023-02-10T08:34:51;22.63;;;10.93;;
60169;SDS011;46042;49.444;6.862;2023-02-10T08:37:18;23.03;;;12.80;;
60169;SDS011;46042;49.444;6.862;2023-02-10T08:39:45;21.43;;;12.07;;
60169;SDS011;46042;49.444;6.862;2023-02-10T08:42:12;30.07;;;12.57;;
60169;SDS011;46042;49.444;6.862;2023-02-10T08:44:39;34.03;;;13.30;;
60169;SDS011;46042;49.444;6.862;2023-02-10T08:47:05;24.20;;;13.00;;
60169;SDS011;46042;49.444;6.862;2023-02-10T08:49:34;23.93;;;13.03;;
60169;SDS011;46042;49.444;6.862;2023-02-10T08:52:01;24.40;;;13.03;;
60169;SDS011;46042;49.444;6.862;2023-02-10T08:54:28;23.60;;;12.53;;
60169;SDS011;46042;49.444;6.862;2023-02-10T08:56:55;27.80;;;12.63;;
60169;SDS011;46042;49.444;6.862;2023-02-10T08:59:22;23.43;;;13.47;;
60169;SDS011;46042;49.444;6.862;2023-02-10T09:01:48;28.13;;;13.93;;
60169;SDS011;46042;49.444;6.862;2023-02-10T09:04:16;27.67;;;13.60;;
60169;SDS011;46042;49.444;6.862;2023-02-10T09:06:43;21.73;;;12.97;;
60169;SDS011;46042;49.444;6.862;2023-02-10T09:09:10;25.53;;;14.30;;
60169;SDS011;46042;49.444;6.862;2023-02-10T09:11:39;29.90;;;12.67;;
60169;SDS011;46042;49.444;6.862;2023-02-10T09:14:06;23.87;;;12.57;;
60169;SDS011;46042;49.444;6.862;2023-02-10T09:16:34;24.50;;;13.13;;
60169;SDS011;46042;49.444;6.862;2023-02-10T09:19:01;28.07;;;13.13;;
60169;SDS011;46042;49.444;6.862;2023-02-10T09:21:27;21.00;;;11.93;;
60169;SDS011;46042;49.444;6.862;2023-02-10T09:24:11;28.03;;;14.00;;
60169;SDS011;46042;49.444;6.862;2023-02-10T09:26:38;25.93;;;14.07;;
60169;SDS011;46042;49.444;6.862;2023-02-10T09:29:04;23.70;;;12.73;;
60169;SDS011;46042;49.444;6.862;2023-02-10T09:31:31;23.97;;;13.87;;
60169;SDS011;46042;49.444;6.862;2023-02-10T09:33:59;31.23;;;13.93;;
60169;SDS011;46042;49.444;6.862;2023-02-10T09:36:26;25.00;;;13.37;;
60169;SDS011;46042;49.444;6.862;2023-02-10T09:38:54;27.67;;;12.53;;
60169;SDS011;46042;49.444;6.862;2023-02-10T09:55:12;24.30;;;13.03;;
60169;SDS011;46042;49.444;6.862;2023-02-10T09:57:45;23.07;;;13.33;;
60169;SDS011;46042;49.444;6.862;2023-02-10T10:00:28;23.53;;;11.80;;
60169;SDS011;46042;49.444;6.862;2023-02-10T10:03:00;25.37;;;13.10;;
60169;SDS011;46042;49.444;6.862;2023-02-10T10:11:23;23.23;;;13.40;;
60169;SDS011;46042;49.444;6.862;2023-02-10T10:30:46;26.70;;;12.70;;
60169;SDS011;46042;49.444;6.862;2023-02-10T10:35:55;21.70;;;12.33;;
60169;SDS011;46042;49.444;6.862;2023-02-10T10:38:31;23.80;;;12.47;;
60169;SDS011;46042;49.444;6.862;2023-02-10T10:41:03;22.53;;;12.77;;
60169;SDS011;46042;49.444;6.862;2023-02-10T10:43:42;23.73;;;11.87;;
60169;SDS011;46042;49.444;6.862;2023-02-10T10:46:13;23.33;;;12.03;;
60169;SDS011;46042;49.444;6.862;2023-02-10T10:48:45;22.07;;;12.00;;
60169;SDS011;46042;49.444;6.862;2023-02-10T10:51:12;22.33;;;11.95;;
60169;SDS011;46042;49.444;6.862;2023-02-10T10:53:48;25.93;;;12.27;;
60169;SDS011;46042;49.444;6.862;2023-02-10T10:59:00;18.80;;;11.30;;
60169;SDS011;46042;49.444;6.862;2023-02-10T11:01:38;21.48;;;12.05;;
60169;SDS011;46042;49.444;6.862;2023-02-10T11:04:09;24.52;;;13.30;;
60169;SDS011;46042;49.444;6.862;2023-02-10T11:06:37;19.25;;;11.90;;
60169;SDS011;46042;49.444;6.862;2023-02-10T11:09:17;24.55;;;13.32;;
60169;SDS011;46042;49.444;6.862;2023-02-10T11:14:47;27.02;;;14.10;;
60169;SDS011;46042;49.444;6.862;2023-02-10T11:20:00;28.98;;;12.95;;
60169;SDS011;46042;49.444;6.862;2023-02-10T11:22:38;23.20;;;13.18;;
60169;SDS011;46042;49.444;6.862;2023-02-10T11:28:18;23.73;;;13.40;;
60169;SDS011;46042;49.444;6.862;2023-02-10T11:30:52;21.42;;;13.13;;
60169;SDS011;46042;49.444;6.862;2023-02-10T11:33:24;25.67;;;13.32;;
60169;SDS011;46042;49.444;6.862;2023-02-10T11:38:38;25.90;;;13.48;;
60169;SDS011;46042;49.444;6.862;2023-02-10T11:41:09;28.17;;;13.88;;
60169;SDS011;46042;49.444;6.862;2023-02-10T11:43:37;27.60;;;15.47;;
60169;SDS011;46042;49.444;6.862;2023-02-10T11:46:16;26.92;;;14.50;;
60169;SDS011;46042;49.444;6.862;2023-02-10T11:48:54;29.73;;;14.60;;
60169;SDS011;46042;49.444;6.862;2023-02-10T11:51:29;23.52;;;14.18;;
60169;SDS011;46042;49.444;6.862;2023-02-10T11:53:56;24.42;;;14.13;;
60169;SDS011;46042;49.444;6.862;2023-02-10T12:01:52;27.52;;;15.07;;
60169;SDS011;46042;49.444;6.862;2023-02-10T12:04:43;28.48;;;14.27;;
60169;SDS011;46042;49.444;6.862;2023-02-10T12:09:54;24.30;;;13.60;;
60169;SDS011;46042;49.444;6.862;2023-02-10T12:17:58;25.73;;;14.43;;
60169;SDS011;46042;49.444;6.862;2023-02-10T12:43:11;23.85;;;14.25;;
60169;SDS011;46042;49.444;6.862;2023-02-10T12:45:54;28.15;;;17.95;;
60169;SDS011;46042;49.444;6.862;2023-02-10T12:54:33;31.73;;;16.30;;
60169;SDS011;46042;49.444;6.862;2023-02-10T12:59:56;25.27;;;15.35;;
60169;SDS011;46042;49.444;6.862;2023-02-10T13:02:40;27.77;;;14.07;;
60169;SDS011;46042;49.444;6.862;2023-02-10T13:05:12;24.67;;;14.50;;
60169;SDS011;46042;49.444;6.862;2023-02-10T13:07:49;32.35;;;17.60;;
60169;SDS011;46042;49.444;6.862;2023-02-10T13:12:53;30.13;;;16.50;;
60169;SDS011;46042;49.444;6.862;2023-02-10T13:17:59;29.60;;;15.07;;
60169;SDS011;46042;49.444;6.862;2023-02-10T13:34:27;26.48;;;12.23;;
60169;SDS011;46042;49.444;6.862;2023-02-10T13:37:04;21.60;;;11.70;;
60169;SDS011;46042;49.444;6.862;2023-02-10T13:39:34;25.85;;;11.55;;
60169;SDS011;46042;49.444;6.862;2023-02-10T13:42:07;26.40;;;12.25;;
60169;SDS011;46042;49.444;6.862;2023-02-10T13:44:57;22.23;;;12.00;;
60169;SDS011;46042;49.444;6.862;2023-02-10T13:47:27;22.33;;;12.02;;
60169;SDS011;46042;49.444;6.862;2023-02-10T13:50:03;24.08;;;11.85;;
60169;SDS011;46042;49.444;6.862;2023-02-10T13:52:33;22.38;;;11.90;;
60169;SDS011;46042;49.444;6.862;2023-02-10T13:55:03;24.00;;;11.32;;
60169;SDS011;46042;49.444;6.862;2023-02-10T13:57:37;23.75;;;11.07;;
60169;SDS011;46042;49.444;6.862;2023-02-10T14:00:12;17.83;;;10.20;;
60169;SDS011;46042;49.444;6.862;2023-02-10T14:02:42;21.50;;;11.10;;
60169;SDS011;46042;49.444;6.862;2023-02-10T14:06:13;23.70;;;13.10;;
60169;SDS011;46042;49.444;6.862;2023-02-10T14:08:32;26.60;;;12.95;;
60169;SDS011;46042;49.444;6.862;2023-02-10T14:11:25;27.40;;;13.88;;
60169;SDS011;46042;49.444;6.862;2023-02-10T14:19:43;24.57;;;12.67;;
60169;SDS011;46042;49.444;6.862;2023-02-10T14:22:21;26.42;;;13.43;;
60169;SDS011;46042;49.444;6.862;2023-02-10T14:25:04;29.42;;;13.75;;
60169;SDS011;46042;49.444;6.862;2023-02-10T14:27:46;24.45;;;13.75;;
60169;SDS011;46042;49.444;6.862;2023-02-10T14:30:26;27.85;;;13.85;;
60169;SDS011;46042;49.444;6.862;2023-02-10T14:33:00;31.52;;;13.77;;
60169;SDS011;46042;49.444;6.862;2023-02-10T14:35:27;23.85;;;12.55;;
60169;SDS011;46042;49.444;6.862;2023-02-10T14:37:57;28.30;;;14.65;;
60169;SDS011;46042;49.444;6.862;2023-02-10T14:40:25;33.03;;;13.57;;
60169;SDS011;46042;49.444;6.862;2023-02-10T14:42:54;31.10;;;14.45;;
60169;SDS011;46042;49.444;6.862;2023-02-10T14:45:29;32.58;;;14.35;;
60169;SDS011;46042;49.444;6.862;2023-02-10T14:47:57;25.20;;;12.70;;
60169;SDS011;46042;49.444;6.862;2023-02-10T14:50:33;28.58;;;14.07;;
60169;SDS011;46042;49.444;6.862;2023-02-10T14:53:02;24.85;;;13.40;;
60169;SDS011;46042;49.444;6.862;2023-02-10T14:58:19;25.40;;;14.07;;
60169;SDS011;46042;49.444;6.862;2023-02-10T15:00:54;25.88;;;12.60;;
60169;SDS011;46042;49.444;6.862;2023-02-10T15:03:32;25.85;;;13.48;;
60169;SDS011;46042;49.444;6.862;2023-02-10T15:06:00;21.80;;;13.23;;
60169;SDS011;46042;49.444;6.862;2023-02-10T15:10:59;30.65;;;15.55;;
60169;SDS011;46042;49.444;6.862;2023-02-10T15:13:30;29.08;;;14.30;;
60169;SDS011;46042;49.444;6.862;2023-02-10T15:16:00;29.40;;;14.10;;
60169;SDS011;46042;49.444;6.862;2023-02-10T15:18:31;31.42;;;15.48;;
60169;SDS011;46042;49.444;6.862;2023-02-10T15:21:03;28.20;;;15.48;;
60169;SDS011;46042;49.444;6.862;2023-02-10T15:23:32;32.42;;;15.40;;
60169;SDS011;46042;49.444;6.862;2023-02-10T15:26:00;25.15;;;14.07;;
60169;SDS011;46042;49.444;6.862;2023-02-10T15:28:43;27.63;;;15.88;;
60169;SDS011;46042;49.444;6.862;2023-02-10T15:33:50;32.25;;;15.98;;
60169;SDS011;46042;49.444;6.862;2023-02-10T15:39:06;27.42;;;14.23;;
60169;SDS011;46042;49.444;6.862;2023-02-10T15:46:46;34.30;;;14.18;;
60169;SDS011;46042;49.444;6.862;2023-02-10T15:49:16;29.20;;;14.63;;
60169;SDS011;46042;49.444;6.862;2023-02-10T15:51:48;27.48;;;13.88;;
60169;SDS011;46042;49.444;6.862;2023-02-10T15:54:22;27.75;;;13.85;;
60169;SDS011;46042;49.444;6.862;2023-02-10T15:56:57;27.50;;;14.02;;
60169;SDS011;46042;49.444;6.862;2023-02-10T15:59:25;22.63;;;12.43;;
60169;SDS011;46042;49.444;6.862;2023-02-10T16:04:23;25.77;;;13.88;;
60169;SDS011;46042;49.444;6.862;2023-02-10T16:06:50;29.17;;;12.73;;
60169;SDS011;46042;49.444;6.862;2023-02-10T16:09:17;28.15;;;12.70;;
60169;SDS011;46042;49.444;6.862;2023-02-10T16:11:44;27.60;;;12.65;;
60169;SDS011;46042;49.444;6.862;2023-02-10T16:14:10;25.58;;;14.40;;
60169;SDS011;46042;49.444;6.862;2023-02-10T16:16:38;27.33;;;13.48;;
60169;SDS011;46042;49.444;6.862;2023-02-10T16:19:09;30.83;;;14.45;;
60169;SDS011;46042;49.444;6.862;2023-02-10T16:21:39;27.58;;;14.10;;
60169;SDS011;46042;49.444;6.862;2023-02-10T16:24:07;28.13;;;14.43;;
60169;SDS011;46042;49.444;6.862;2023-02-10T16:26:45;28.45;;;14.32;;
60169;SDS011;46042;49.444;6.862;2023-02-10T16:29:16;31.10;;;14.63;;
60169;SDS011;46042;49.444;6.862;2023-02-10T16:31:44;28.70;;;13.45;;
60169;SDS011;46042;49.444;6.862;2023-02-10T16:34:11;26.73;;;13.77;;
60169;SDS011;46042;49.444;6.862;2023-02-10T16:36:39;24.08;;;13.75;;
60169;SDS011;46042;49.444;6.862;2023-02-10T16:39:20;25.20;;;12.27;;
60169;SDS011;46042;49.444;6.862;2023-02-10T16:44:14;24.38;;;12.38;;
60169;SDS011;46042;49.444;6.862;2023-02-10T16:46:41;30.20;;;14.02;;
60169;SDS011;46042;49.444;6.862;2023-02-10T16:49:12;36.40;;;15.75;;
60169;SDS011;46042;49.444;6.862;2023-02-10T16:51:41;31.10;;;14.85;;
60169;SDS011;46042;49.444;6.862;2023-02-10T16:54:10;28.23;;;14.90;;
60169;SDS011;46042;49.444;6.862;2023-02-10T16:56:37;29.60;;;14.73;;
60169;SDS011;46042;49.444;6.862;2023-02-10T16:59:05;31.02;;;15.02;;
60169;SDS011;46042;49.444;6.862;2023-02-10T17:01:33;26.38;;;13.27;;
60169;SDS011;46042;49.444;6.862;2023-02-10T17:04:00;28.75;;;13.68;;
60169;SDS011;46042;49.444;6.862;2023-02-10T17:06:27;35.38;;;15.30;;
60169;SDS011;46042;49.444;6.862;2023-02-10T17:08:57;27.70;;;13.55;;
60169;SDS011;46042;49.444;6.862;2023-02-10T17:11:23;31.00;;;14.00;;
60169;SDS011;46042;49.444;6.862;2023-02-10T17:13:50;23.70;;;13.10;;
60169;SDS011;46042;49.444;6.862;2023-02-10T17:16:27;28.85;;;13.68;;
60169;SDS011;46042;49.444;6.862;2023-02-10T17:18:57;27.65;;;12.68;;
60169;SDS011;46042;49.444;6.862;2023-02-10T17:21:25;25.90;;;12.77;;
60169;SDS011;46042;49.444;6.862;2023-02-10T17:23:51;37.30;;;12.13;;
60169;SDS011;46042;49.444;6.862;2023-02-10T17:26:18;23.77;;;12.48;;
60169;SDS011;46042;49.444;6.862;2023-02-10T17:28:45;26.73;;;12.40;;
60169;SDS011;46042;49.444;6.862;2023-02-10T17:31:15;30.97;;;14.00;;